Terminal Aerodrome Forecast
Issued by NWS Charleston, WV

Current Version | Previous Version | Graphics & Text | Print | Product List | Glossary On
Versions: 1 2 3 4 5 6 7 8 9 10 11 12 13 14 15 16 17 18 19 20 21 22 23 24 25 26
000
FTUS41 KRLX 261700
TAFHTS
TAF
KHTS 261740Z 2618/2718 20008KT P6SM FEW050
     FM262200 24007G12KT P6SM SCT250
     FM270300 19003KT P6SM VCTS BKN040CB
     FM270600 17002KT 4SM SHRA VCTS BKN035CB
     FM271700 19009G16KT 3SM TSRA BR BKN020CB=

USA.gov is the U.S. government's official web portal to all federal, state and local government web resources and services.